Xinfa Hai — BOCD — position and weather

sailwx.info

Track history (hours):
 
Tides and Currents Weather Stations Pressure Air Temp Water Temp Dewpoint Dewpoint Depression Visibility Wind Speed Wind Dir Waves Ship Positions

Xinfa Hai

Last reported at 2018-Feb-22 21:36 UTC. Time now 2018-Feb-24 06:50 UTC.
Position N 30°59' E 122°33'.

Length 289 m; draft 7.9 m.

Type: Cargo ship. MMSI: 413017000.

Date/timePositionNaut miles runAvg speedWind from/ knotsBaromVisibWave heightAir tempDewpointWater temp
2018-Feb-22 21:36N 30°59' E 122°33'213.0
2018-Feb-22 21:26N 30°59' E 122°30'512.5
2018-Feb-22 21:00N 31°01' E 122°24'58 8.9
2018-Feb-22 14:30N 31°30' E 121°25'5 9.3
2018-Feb-22 14:00N 31°32' E 121°21'4 8.7
2018-Feb-22 13:30N 31°36' E 121°17'5 9.4
2018-Feb-22 13:00N 31°39' E 121°13'41 9.6
2018-Feb-22 08:41N 32°01' E 120°32'2 9.1
2018-Feb-22 08:30N 32°02' E 120°31'  
2018-Feb-17 10:32N 32°01' E 120°24'112.9
2018-Feb-17 10:26N 32°02' E 120°25'7811.5
2018-Feb-17 03:37N 31°19' E 121°43'111.2
2018-Feb-17 03:30N 31°19' E 121°44'611.0
2018-Feb-17 02:55N 31°16' E 121°51'510.7
2018-Feb-17 02:27N 31°15' E 121°57'511.4
2018-Feb-17 01:59N 31°14' E 122°03'712.7
2018-Feb-17 01:24N 31°11' E 122°11'513.0
2018-Feb-17 00:59N 31°08' E 122°16'510.8
2018-Feb-17 00:29N 31°06' E 122°22'  
2018-Feb-14 12:12N 24°46' E 119°30'313.2
2018-Feb-14 11:58N 24°44' E 119°28'613.1
2018-Feb-14 11:30N 24°41' E 119°22'713.2
2018-Feb-14 11:00N 24°37' E 119°16'713.3
2018-Feb-14 10:31N 24°33' E 119°11'612.5
2018-Feb-14 10:01N 24°29' E 119°05'612.6
2018-Feb-14 09:31N 24°25' E 118°60'612.4
2018-Feb-14 09:01N 24°21' E 118°55'612.4
2018-Feb-14 08:30N 24°17' E 118°49'612.6
2018-Feb-14 08:01N 24°13' E 118°44'612.4
2018-Feb-14 07:31N 24°09' E 118°39'612.2
2018-Feb-14 07:00N 24°06' E 118°33'612.1
2018-Feb-14 06:31N 24°02' E 118°28'611.9
2018-Feb-14 06:01N 23°59' E 118°23'611.6
2018-Feb-14 05:31N 23°55' E 118°18'611.7
2018-Feb-14 05:01N 23°52' E 118°13'611.8
2018-Feb-14 04:30N 23°48' E 118°07'611.8
2018-Feb-14 04:01N 23°45' E 118°02'612.3
2018-Feb-14 03:30N 23°41' E 117°57'712.9
2018-Feb-14 03:00N 23°37' E 117°51'713.2
2018-Feb-14 02:30N 23°33' E 117°46'713.3
2018-Feb-14 02:00N 23°28' E 117°41'713.5
2018-Feb-14 01:31N 23°23' E 117°35'713.5
2018-Feb-14 01:01N 23°19' E 117°30'713.3
2018-Feb-14 00:29N 23°14' E 117°25'712.7
2018-Feb-13 23:56N 23°09' E 117°19'  
Track history (hours):
 
Tides and Currents Weather Stations Pressure Air Temp Water Temp Dewpoint Dewpoint Depression Visibility Wind Speed Wind Dir Waves Ship Positions

Xinfa Hai

Last reported at 2018-Feb-22 21:36 UTC. Time now 2018-Feb-24 06:50 UTC.
Position N 30°59' E 122°33'.

Length 289 m; draft 7.9 m.

Type: Cargo ship. MMSI: 413017000.

Date/timePositionNaut miles runAvg speedWind from/ knotsBaromVisibWave heightAir tempDewpointWater temp
2018-Feb-22 21:36N 30°59' E 122°33'213.0
2018-Feb-22 21:26N 30°59' E 122°30'512.5
2018-Feb-22 21:00N 31°01' E 122°24'58 8.9
2018-Feb-22 14:30N 31°30' E 121°25'5 9.3
2018-Feb-22 14:00N 31°32' E 121°21'4 8.7
2018-Feb-22 13:30N 31°36' E 121°17'5 9.4
2018-Feb-22 13:00N 31°39' E 121°13'41 9.6
2018-Feb-22 08:41N 32°01' E 120°32'2 9.1
2018-Feb-22 08:30N 32°02' E 120°31'  
2018-Feb-17 10:32N 32°01' E 120°24'112.9
2018-Feb-17 10:26N 32°02' E 120°25'7811.5
2018-Feb-17 03:37N 31°19' E 121°43'111.2
2018-Feb-17 03:30N 31°19' E 121°44'611.0
2018-Feb-17 02:55N 31°16' E 121°51'510.7
2018-Feb-17 02:27N 31°15' E 121°57'511.4
2018-Feb-17 01:59N 31°14' E 122°03'712.7
2018-Feb-17 01:24N 31°11' E 122°11'513.0
2018-Feb-17 00:59N 31°08' E 122°16'510.8
2018-Feb-17 00:29N 31°06' E 122°22'  
2018-Feb-14 12:12N 24°46' E 119°30'313.2
2018-Feb-14 11:58N 24°44' E 119°28'613.1
2018-Feb-14 11:30N 24°41' E 119°22'713.2
2018-Feb-14 11:00N 24°37' E 119°16'713.3
2018-Feb-14 10:31N 24°33' E 119°11'612.5
2018-Feb-14 10:01N 24°29' E 119°05'612.6
2018-Feb-14 09:31N 24°25' E 118°60'612.4
2018-Feb-14 09:01N 24°21' E 118°55'612.4
2018-Feb-14 08:30N 24°17' E 118°49'612.6
2018-Feb-14 08:01N 24°13' E 118°44'612.4
2018-Feb-14 07:31N 24°09' E 118°39'612.2
2018-Feb-14 07:00N 24°06' E 118°33'612.1
2018-Feb-14 06:31N 24°02' E 118°28'611.9
2018-Feb-14 06:01N 23°59' E 118°23'611.6
2018-Feb-14 05:31N 23°55' E 118°18'611.7
2018-Feb-14 05:01N 23°52' E 118°13'611.8
2018-Feb-14 04:30N 23°48' E 118°07'611.8
2018-Feb-14 04:01N 23°45' E 118°02'612.3
2018-Feb-14 03:30N 23°41' E 117°57'712.9
2018-Feb-14 03:00N 23°37' E 117°51'713.2
2018-Feb-14 02:30N 23°33' E 117°46'713.3
2018-Feb-14 02:00N 23°28' E 117°41'713.5
2018-Feb-14 01:31N 23°23' E 117°35'713.5
2018-Feb-14 01:01N 23°19' E 117°30'713.3
2018-Feb-14 00:29N 23°14' E 117°25'712.7
2018-Feb-13 23:56N 23°09' E 117°19'  

Dump ship's entire track history